Time;durP1;ratioP1;P1;durP2;ratioP2;P2;SDS_P1;SDS_P2;PMS_P1;PMS_P2;Temp;Humidity;BMP_temperature;BMP_pressure;BME280_temperature;BME280_humidity;BME280_pressure;Samples;Min_cycle;Max_cycle;Signal;HPM_P1;HPM_P2
2021/12/16 00:01:46;;;;;;;;;;;;;;;9.33;32.62;100829.31;5000240;28;19921;-77
2021/12/16 00:06:11;;;;;;;;;;;;;;;9.18;40.78;100815.53;5001564;28;20004;-77
2021/12/16 00:08:40;;;;;;;;;;;;;;;9.38;43.81;100802.75;5005631;28;20385;-78
2021/12/16 00:19:25;;;;;;;;;;;;;;;9.55;47.21;100797.59;5003629;28;19959;-78
2021/12/16 00:33:31;;;;;;;;;;;;;;;10.52;90.68;100737.47;5015448;28;19932;-77
2021/12/16 00:35:56;;;;;;;;;;;;;;;10.42;88.06;100742.66;4981208;28;20000;-77
2021/12/16 00:38:22;;;;;;;;;;;;;;;9.85;87.09;100752.16;5002106;28;19921;-77
2021/12/16 00:40:47;;;;;;;;;;;;;;;10.39;78.12;100749.53;5014106;28;20020;-77
2021/12/16 00:43:22;;;;;;;;;;;;;;;9.83;77.29;100754.75;5003089;28;19936;-78
2021/12/16 00:54:11;;;;;;;;;;;;;;;9.96;76.37;100754.72;5000468;28;19924;-78
2021/12/16 00:56:39;;;;;;;;;;;;;;;9.55;73.03;100751.31;5009724;28;19925;-77
2021/12/16 00:59:07;;;;;;;;;;;;;;;10.03;68.52;100769.31;5009209;28;19917;-77
2021/12/16 01:33:32;;;;;;;;;;;;;;;10.28;74.98;100777.84;5003363;28;20298;-79
2021/12/16 01:50:08;;;;;;;;;;;;;;;9.90;68.27;100807.09;5007367;28;19928;-78
2021/12/16 01:55:36;;;;;;;;;;;;;;;9.69;65.79;100801.91;4986364;28;19921;-78
2021/12/16 01:58:20;;;;;;;;;;;;;;;9.95;63.38;100804.50;5007083;28;19914;-78
2021/12/16 02:00:56;;;;;;;;;;;;;;;9.69;60.67;100801.91;5002527;28;19925;-78
2021/12/16 02:03:27;;;;;;;;;;;;;;;9.79;61.26;100804.50;4999452;28;19921;-77
2021/12/16 02:08:44;;;;;;;;;;;;;;;10.01;60.33;100820.81;4971129;28;19928;-78
2021/12/16 02:30:06;;;;;;;;;;;;;;;10.16;66.18;100807.03;5000677;28;19932;-77
2021/12/16 02:37:33;;;;;;;;;;;;;;;10.00;62.93;100806.19;5006753;28;19932;-77
2021/12/16 02:40:00;;;;;;;;;;;;;;;9.87;62.88;100812.22;4999528;28;19949;-78
2021/12/16 02:42:35;;;;;;;;;;;;;;;9.63;63.02;100805.34;5017644;28;19981;-78
2021/12/16 02:50:23;;;;;;;;;;;;;;;9.49;65.36;100799.31;5008046;28;19975;-78
2021/12/16 02:52:49;;;;;;;;;;;;;;;9.77;63.44;100802.78;4999280;28;19920;-78
2021/12/16 02:55:15;;;;;;;;;;;;;;;10.10;64.29;100814.75;4998813;28;19977;-78
2021/12/16 02:57:49;;;;;;;;;;;;;;;9.61;72.70;100802.78;4998164;28;19929;-78
2021/12/16 03:00:16;;;;;;;;;;;;;;;9.28;67.17;100800.13;5017140;28;19930;-78
2021/12/16 03:02:42;;;;;;;;;;;;;;;9.74;68.37;100800.19;4989644;28;19925;-78
2021/12/16 03:05:09;;;;;;;;;;;;;;;10.31;69.84;100808.78;5018495;28;20056;-78
2021/12/16 03:07:35;;;;;;;;;;;;;;;9.67;76.20;100795.91;5017328;28;20570;-78
2021/12/16 03:12:54;;;;;;;;;;;;;;;9.63;78.56;100803.63;5007676;28;19928;-78
2021/12/16 03:18:07;;;;;;;;;;;;;;;9.86;83.83;100789.06;5004790;28;19922;-78
2021/12/16 03:20:47;;;;;;;;;;;;;;;9.24;83.04;100798.41;5008107;28;20684;-78
2021/12/16 03:33:23;;;;;;;;;;;;;;;8.28;62.90;100833.94;5016850;28;19921;-77
2021/12/16 03:36:14;;;;;;;;;;;;;;;8.10;58.34;100839.78;4990161;28;19928;-78
2021/12/16 03:38:41;;;;;;;;;;;;;;;7.89;51.50;100853.31;5016799;28;20370;-77
2021/12/16 03:41:06;;;;;;;;;;;;;;;8.11;42.26;100877.41;5003173;28;19956;-78
2021/12/16 03:43:33;;;;;;;;;;;;;;;8.04;38.50;100879.94;5016362;28;19925;-77
2021/12/16 03:48:40;;;;;;;;;;;;;;;7.81;33.59;100895.97;5005984;28;20454;-78
2021/12/16 03:51:10;;;;;;;;;;;;;;;7.99;25.63;100912.38;5017070;28;20295;-78
2021/12/16 03:53:36;;;;;;;;;;;;;;;8.01;21.22;100928.66;5016914;28;20287;-78
2021/12/16 03:56:01;;;;;;;;;;;;;;;7.93;19.44;100947.38;4979619;28;19937;-77
2021/12/16 03:58:27;;;;;;;;;;;;;;;8.07;16.81;100955.22;4987396;28;19921;-78
2021/12/16 04:00:54;;;;;;;;;;;;;;;7.99;15.44;100968.84;5004702;28;19917;-78
2021/12/16 04:03:19;;;;;;;;;;;;;;;7.76;13.78;100979.69;5016392;28;19964;-78
2021/12/16 04:05:45;;;;;;;;;;;;;;;8.04;11.41;100974.88;4998052;28;20371;-77
2021/12/16 04:08:11;;;;;;;;;;;;;;;7.96;11.81;100983.34;4988232;28;19925;-78
2021/12/16 04:10:40;;;;;;;;;;;;;;;7.93;11.04;100985.00;4996017;28;20463;-78
2021/12/16 04:13:06;;;;;;;;;;;;;;;7.86;9.39;100998.63;5004517;28;19917;-77
2021/12/16 04:15:32;;;;;;;;;;;;;;;7.82;8.35;100995.13;4982815;28;19948;-77
2021/12/16 04:17:57;;;;;;;;;;;;;;;7.69;6.96;100995.88;4997391;28;20133;-78
2021/12/16 04:20:23;;;;;;;;;;;;;;;7.66;5.90;101006.06;4996686;28;19991;-78
2021/12/16 04:22:48;;;;;;;;;;;;;;;7.83;4.13;100999.44;4995958;28;19913;-78
2021/12/16 04:25:16;;;;;;;;;;;;;;;8.05;3.02;100995.41;4991557;28;19917;-77
2021/12/16 04:27:42;;;;;;;;;;;;;;;8.17;2.55;100994.69;4980018;28;19921;-78
2021/12/16 04:30:09;;;;;;;;;;;;;;;8.17;3.35;100994.69;4995550;28;20056;-78
2021/12/16 04:32:35;;;;;;;;;;;;;;;8.54;2.77;100987.34;4985432;28;20473;-78
2021/12/16 04:35:00;;;;;;;;;;;;;;;8.23;4.40;100984.44;4997253;28;19921;-78
2021/12/16 04:37:26;;;;;;;;;;;;;;;8.35;5.51;100984.59;4986849;28;19918;-78
2021/12/16 04:39:51;;;;;;;;;;;;;;;8.77;5.35;100962.69;5016668;28;20514;-79
2021/12/16 04:42:19;;;;;;;;;;;;;;;8.38;9.91;100966.63;5003643;28;19918;-77
2021/12/16 04:44:44;;;;;;;;;;;;;;;8.11;9.33;100961.25;5016413;28;19965;-78
2021/12/16 04:47:10;;;;;;;;;;;;;;;8.20;8.16;100974.16;4994360;28;19933;-78
2021/12/16 04:49:36;;;;;;;;;;;;;;;8.30;7.88;100968.28;5001656;28;19918;-79
2021/12/16 04:52:03;;;;;;;;;;;;;;;8.32;7.86;100966.56;5002909;28;20437;-78
2021/12/16 04:54:29;;;;;;;;;;;;;;;8.51;7.53;100964.22;5007135;28;19941;-78
2021/12/16 04:56:55;;;;;;;;;;;;;;;8.95;7.00;100968.78;4998720;28;19922;-78
2021/12/16 04:59:21;;;;;;;;;;;;;;;8.29;11.45;100963.97;5006155;28;20017;-78
2021/12/16 05:01:51;;;;;;;;;;;;;;;8.49;10.40;100960.75;4991673;28;19917;-78
2021/12/16 05:04:16;;;;;;;;;;;;;;;8.45;9.84;100956.44;4999929;28;19918;-78
2021/12/16 05:06:42;;;;;;;;;;;;;;;8.66;8.87;100954.03;5004060;28;19936;-79
2021/12/16 05:09:08;;;;;;;;;;;;;;;8.37;11.81;100952.09;4996812;28;19925;-77
2021/12/16 05:11:35;;;;;;;;;;;;;;;8.32;12.09;100948.59;5003141;28;20004;-78
2021/12/16 05:14:01;;;;;;;;;;;;;;;8.36;12.16;100945.22;4997348;28;19932;-78
2021/12/16 05:16:26;;;;;;;;;;;;;;;8.65;10.83;100942.06;4973348;28;19996;-78
2021/12/16 05:18:54;;;;;;;;;;;;;;;8.59;12.73;100936.84;4998804;28;19921;-78
2021/12/16 05:26:39;;;;;;;;;;;;;;;8.81;11.78;100937.88;5005126;28;19918;-78
2021/12/16 05:29:05;;;;;;;;;;;;;;;8.95;17.13;100923.41;4998385;28;19925;-78
2021/12/16 05:31:30;;;;;;;;;;;;;;;8.98;16.10;100915.69;5017345;28;19921;-78
2021/12/16 05:33:56;;;;;;;;;;;;;;;9.18;19.02;100914.94;4998298;28;19921;-77
2021/12/16 05:36:21;;;;;;;;;;;;;;;9.18;20.13;100908.09;5001375;28;19956;-80
2021/12/16 05:38:47;;;;;;;;;;;;;;;9.03;24.02;100896.88;4980059;28;19921;-77
2021/12/16 05:41:14;;;;;;;;;;;;;;;8.84;29.48;100898.50;4968524;28;19923;-78
2021/12/16 05:43:39;;;;;;;;;;;;;;;8.88;28.55;100902.81;4982581;28;21533;-77
2021/12/16 05:46:05;;;;;;;;;;;;;;;9.51;27.76;100901.38;4984718;28;19918;-77
2021/12/16 05:48:31;;;;;;;;;;;;;;;8.70;31.61;100899.28;4991631;28;19972;-78
2021/12/16 05:50:59;;;;;;;;;;;;;;;8.83;28.09;100904.50;4983653;28;20272;-78
2021/12/16 05:53:24;;;;;;;;;;;;;;;8.43;28.13;100914.50;4982858;28;20454;-78
2021/12/16 05:55:50;;;;;;;;;;;;;;;8.42;24.05;100923.91;4989781;28;19925;-76
2021/12/16 05:58:18;;;;;;;;;;;;;;;8.84;21.10;100937.88;4992222;28;19923;-78
2021/12/16 06:00:45;;;;;;;;;;;;;;;9.07;21.55;100940.59;4987190;28;19921;-78
2021/12/16 06:03:10;;;;;;;;;;;;;;;8.76;23.63;100940.41;4979965;28;20039;-78
2021/12/16 06:05:36;;;;;;;;;;;;;;;8.82;21.83;100933.59;5006956;28;20379;-78
2021/12/16 06:08:01;;;;;;;;;;;;;;;8.72;21.65;100941.25;4988169;28;19918;-78
2021/12/16 06:13:11;;;;;;;;;;;;;;;9.03;20.37;100938.84;4990884;28;19920;-78
2021/12/16 06:26:31;;;;;;;;;;;;;;;8.57;24.57;100944.53;4992368;28;19928;-78
2021/12/16 06:28:56;;;;;;;;;;;;;;;8.98;20.36;100953.38;5006936;28;20091;-78
2021/12/16 06:31:22;;;;;;;;;;;;;;;8.75;23.57;100958.38;4992956;28;20003;-78
2021/12/16 06:33:48;;;;;;;;;;;;;;;8.77;21.98;100956.69;5006789;28;19917;-78
2021/12/16 06:36:13;;;;;;;;;;;;;;;8.99;20.64;100963.69;4995969;28;19921;-78
2021/12/16 06:38:38;;;;;;;;;;;;;;;8.86;23.66;100958.47;4989336;28;19913;-78
2021/12/16 06:41:04;;;;;;;;;;;;;;;9.40;21.29;100950.19;5008026;28;19920;-79
2021/12/16 06:43:31;;;;;;;;;;;;;;;9.44;26.19;100956.19;4989567;28;19917;-78
2021/12/16 06:45:58;;;;;;;;;;;;;;;9.49;33.28;100946.78;4998171;28;19928;-78
2021/12/16 06:48:29;;;;;;;;;;;;;;;9.56;31.72;100945.97;4990807;28;21070;-78
2021/12/16 06:50:59;;;;;;;;;;;;;;;9.11;34.64;100931.19;4989927;28;20275;-77
2021/12/16 06:53:30;;;;;;;;;;;;;;;8.83;34.21;100938.75;4993903;28;19944;-77
2021/12/16 06:56:05;;;;;;;;;;;;;;;9.37;30.43;100944.16;5005383;28;20385;-77
2021/12/16 06:58:36;;;;;;;;;;;;;;;9.04;29.20;100950.84;4996723;28;20395;-77
2021/12/16 07:01:12;;;;;;;;;;;;;;;8.92;28.67;100953.38;4983610;28;19917;-78
2021/12/16 07:03:47;;;;;;;;;;;;;;;9.40;29.85;100959.63;5003450;28;19928;-78
2021/12/16 07:06:18;;;;;;;;;;;;;;;9.04;29.37;100971.41;4987399;28;19917;-78
2021/12/16 07:08:43;;;;;;;;;;;;;;;8.82;29.53;100974.69;4986607;28;19924;-78
2021/12/16 07:11:09;;;;;;;;;;;;;;;9.46;24.28;100980.19;4987150;28;19918;-78
2021/12/16 07:13:41;;;;;;;;;;;;;;;9.29;31.27;100976.69;4994185;28;20353;-78
2021/12/16 07:16:06;;;;;;;;;;;;;;;9.84;33.83;100987.19;4991832;28;19922;-78
2021/12/16 07:18:32;;;;;;;;;;;;;;;10.10;39.44;100978.69;5004451;28;19917;-78
2021/12/16 07:20:57;;;;;;;;;;;;;;;9.89;47.78;100977.78;4991002;28;19956;-77
2021/12/16 07:23:23;;;;;;;;;;;;;;;9.72;48.24;100971.75;5007468;28;19999;-77
2021/12/16 07:25:48;;;;;;;;;;;;;;;9.36;53.34;100974.16;4990428;28;19929;-77
2021/12/16 07:28:14;;;;;;;;;;;;;;;9.80;47.34;100978.59;5009679;28;19932;-77
2021/12/16 07:30:40;;;;;;;;;;;;;;;9.38;50.60;100977.59;4974650;28;19956;-77
2021/12/16 07:33:06;;;;;;;;;;;;;;;9.86;49.48;100975.19;5009785;28;20287;-77
2021/12/16 07:35:31;;;;;;;;;;;;;;;9.56;52.75;100979.41;5009158;28;19975;-77
2021/12/16 07:37:57;;;;;;;;;;;;;;;9.29;47.33;100987.00;4982892;28;19924;-77
2021/12/16 07:40:25;;;;;;;;;;;;;;;9.16;43.70;101002.31;4997486;28;19941;-77
2021/12/16 07:45:26;;;;;;;;;;;;;;;9.24;33.69;101009.22;4997810;28;19913;-78
2021/12/16 07:47:52;;;;;;;;;;;;;;;9.90;34.90;101012.09;5007692;28;20375;-78
2021/12/16 07:50:17;;;;;;;;;;;;;;;9.76;41.93;101005.19;4973184;28;19917;-77
2021/12/16 07:52:43;;;;;;;;;;;;;;;8.87;48.39;101009.88;4993906;28;19918;-77
2021/12/16 07:55:09;;;;;;;;;;;;;;;8.88;40.01;101027.00;4997374;28;20005;-77
2021/12/16 07:57:34;;;;;;;;;;;;;;;8.84;37.41;101026.97;4996124;28;19933;-77
2021/12/16 08:00:00;;;;;;;;;;;;;;;8.74;32.81;101039.72;4990073;28;19918;-78
2021/12/16 08:02:25;;;;;;;;;;;;;;;8.82;28.71;101044.06;4991783;28;20355;-77
2021/12/16 08:04:52;;;;;;;;;;;;;;;9.29;26.12;101048.69;4974477;28;19973;-77
2021/12/16 08:07:18;;;;;;;;;;;;;;;9.51;27.31;101044.50;4998986;28;20284;-78
2021/12/16 08:09:44;;;;;;;;;;;;;;;8.90;29.47;101050.13;5008673;28;20346;-76
2021/12/16 08:12:12;;;;;;;;;;;;;;;9.34;24.87;101057.28;4990510;28;20005;-77
2021/12/16 08:14:37;;;;;;;;;;;;;;;9.24;26.62;101065.78;4999090;28;19968;-77
2021/12/16 08:17:03;;;;;;;;;;;;;;;8.91;26.76;101067.25;5008492;28;19921;-77
2021/12/16 08:19:28;;;;;;;;;;;;;;;8.88;24.12;101077.53;4990632;28;19929;-77
2021/12/16 08:21:54;;;;;;;;;;;;;;;8.76;22.96;101089.41;4990016;28;19975;-77
2021/12/16 08:24:19;;;;;;;;;;;;;;;8.91;20.67;101096.38;4982609;28;19917;-78
2021/12/16 08:26:46;;;;;;;;;;;;;;;9.09;19.48;101100.81;5004200;28;19917;-78
2021/12/16 08:29:11;;;;;;;;;;;;;;;8.91;19.69;101103.22;4975026;28;20401;-77
2021/12/16 08:31:36;;;;;;;;;;;;;;;8.77;20.28;101111.69;5002962;28;19913;-78
2021/12/16 08:34:02;;;;;;;;;;;;;;;8.74;16.96;101116.78;4986470;28;19913;-78
2021/12/16 08:36:28;;;;;;;;;;;;;;;8.34;16.40;101136.88;5003756;28;19925;-78
2021/12/16 08:38:53;;;;;;;;;;;;;;;8.40;13.13;101140.38;4991265;28;19957;-78
2021/12/16 08:41:23;;;;;;;;;;;;;;;8.74;10.57;101157.03;4995665;28;19921;-78
2021/12/16 08:43:49;;;;;;;;;;;;;;;8.57;10.87;101161.97;4974641;28;19924;-78
2021/12/16 08:46:15;;;;;;;;;;;;;;;8.56;9.37;101161.13;4986034;28;19913;-77
2021/12/16 08:48:41;;;;;;;;;;;;;;;8.54;7.86;101164.53;4993819;28;19971;-77
2021/12/16 08:51:07;;;;;;;;;;;;;;;8.92;5.52;101167.50;5001675;28;19922;-77
2021/12/16 08:53:32;;;;;;;;;;;;;;;8.73;6.93;101165.56;4985299;28;19971;-76
2021/12/16 08:55:59;;;;;;;;;;;;;;;8.72;6.78;101169.88;4983583;28;20429;-76
2021/12/16 08:58:25;;;;;;;;;;;;;;;8.68;6.87;101173.25;4967722;28;19936;-76
2021/12/16 09:01:00;;;;;;;;;;;;;;;8.76;6.58;101175.91;5001785;28;19920;-77
2021/12/16 09:03:27;;;;;;;;;;;;;;;8.93;6.57;101173.50;4992040;28;19917;-76
2021/12/16 09:05:52;;;;;;;;;;;;;;;9.15;7.09;101165.13;4984083;28;20008;-77
2021/12/16 09:08:18;;;;;;;;;;;;;;;8.70;8.74;101168.13;5001249;28;20004;-76
2021/12/16 09:10:43;;;;;;;;;;;;;;;8.95;8.34;101161.53;5001295;28;19937;-76
2021/12/16 09:13:12;;;;;;;;;;;;;;;9.90;5.04;101157.09;4983568;28;19913;-76
2021/12/16 09:15:42;;;;;;;;;;;;;;;9.82;11.44;101138.16;4991360;28;19944;-76
2021/12/16 09:18:08;;;;;;;;;;;;;;;9.61;16.27;101124.31;4983787;28;19921;-76
2021/12/16 09:20:34;;;;;;;;;;;;;;;10.22;19.03;101110.03;5002022;28;19918;-76
2021/12/16 09:23:00;;;;;;;;;;;;;;;10.00;25.50;101098.78;4982341;28;20341;-77
2021/12/16 09:25:25;;;;;;;;;;;;;;;10.08;29.51;101080.78;4983391;28;19917;-77
2021/12/16 09:27:51;;;;;;;;;;;;;;;9.97;32.20;101080.75;4979244;28;20009;-77
2021/12/16 09:30:18;;;;;;;;;;;;;;;10.61;32.41;101074.94;4955343;28;19920;-76
2021/12/16 09:32:44;;;;;;;;;;;;;;;10.72;39.04;101072.34;4979814;28;19924;-77
2021/12/16 09:35:10;;;;;;;;;;;;;;;10.81;44.37;101067.22;4979710;28;19917;-78
2021/12/16 09:37:35;;;;;;;;;;;;;;;10.58;50.27;101068.06;4981305;28;19925;-75
2021/12/16 09:40:02;;;;;;;;;;;;;;;10.71;52.03;101076.66;4983388;28;19941;-76
2021/12/16 09:42:28;;;;;;;;;;;;;;;10.86;53.95;101076.69;4984178;28;19929;-77
2021/12/16 09:44:54;;;;;;;;;;;;;;;10.94;57.77;101068.06;4983466;28;19917;-77
2021/12/16 09:47:21;;;;;;;;;;;;;;;10.89;59.97;101068.94;4985166;28;19924;-78
2021/12/16 09:49:47;;;;;;;;;;;;;;;10.05;60.74;101074.75;4984068;28;19917;-78
2021/12/16 09:52:12;;;;;;;;;;;;;;;10.66;53.09;101080.97;4975253;28;20754;-78
2021/12/16 09:54:39;;;;;;;;;;;;;;;10.75;57.32;101082.69;4976220;28;19972;-78
2021/12/16 09:57:04;;;;;;;;;;;;;;;9.59;56.86;101084.88;4971044;28;20323;-78
2021/12/16 09:59:30;;;;;;;;;;;;;;;10.01;45.66;101098.81;4982906;28;19971;-78
2021/12/16 10:01:57;;;;;;;;;;;;;;;9.97;42.29;101112.50;4974913;28;19917;-78
2021/12/16 10:04:27;;;;;;;;;;;;;;;9.58;41.46;101111.44;4973640;28;19918;-78
2021/12/16 10:06:53;;;;;;;;;;;;;;;10.26;35.12;101114.31;4985002;28;19918;-78
2021/12/16 10:09:18;;;;;;;;;;;;;;;10.60;37.82;101109.28;4985629;28;19924;-78
2021/12/16 10:11:45;;;;;;;;;;;;;;;10.09;43.89;101100.53;4975602;28;19937;-78
2021/12/16 10:19:24;;;;;;;;;;;;;;;9.84;36.94;101110.72;4974343;28;19920;-78
2021/12/16 10:21:50;;;;;;;;;;;;;;;9.49;36.99;101113.97;4974845;28;19922;-78
2021/12/16 10:24:26;;;;;;;;;;;;;;;10.25;31.41;101105.72;4982588;28;19917;-78
2021/12/16 10:27:08;;;;;;;;;;;;;;;10.50;31.18;101117.88;4983931;28;20419;-78
2021/12/16 10:29:38;;;;;;;;;;;;;;;10.19;35.46;101110.00;4982270;28;20033;-77
2021/12/16 10:32:04;;;;;;;;;;;;;;;9.56;35.76;101114.88;4982794;28;19925;-78
2021/12/16 10:34:30;;;;;;;;;;;;;;;9.19;33.99;101125.75;4972080;28;20284;-78
2021/12/16 10:36:57;;;;;;;;;;;;;;;9.68;26.27;101130.38;4983272;28;19973;-78
2021/12/16 10:39:23;;;;;;;;;;;;;;;9.67;24.51;101132.91;4999012;28;19964;-77
2021/12/16 10:41:58;;;;;;;;;;;;;;;10.44;21.69;101136.72;4983588;28;19973;-78
2021/12/16 10:44:27;;;;;;;;;;;;;;;10.08;25.07;101138.31;4982250;28;19955;-78
2021/12/16 10:47:02;;;;;;;;;;;;;;;9.63;25.42;101142.34;4955283;28;19914;-78
2021/12/16 10:49:38;;;;;;;;;;;;;;;9.94;22.93;101148.50;4979574;28;20076;-78
2021/12/16 10:52:05;;;;;;;;;;;;;;;9.93;20.47;101157.09;4971729;28;19925;-79
2021/12/16 10:54:34;;;;;;;;;;;;;;;9.71;20.24;101155.25;4983634;28;20261;-77
2021/12/16 10:57:08;;;;;;;;;;;;;;;9.72;17.43;101159.56;4975469;28;19928;-79
2021/12/16 10:59:34;;;;;;;;;;;;;;;9.59;16.58;101174.91;4983124;28;19925;-78
2021/12/16 11:02:04;;;;;;;;;;;;;;;9.66;14.79;101177.53;4984577;28;19917;-78
2021/12/16 11:04:31;;;;;;;;;;;;;;;9.41;13.30;101185.03;4984776;28;19913;-78
2021/12/16 11:07:11;;;;;;;;;;;;;;;9.73;11.39;101185.28;4984243;28;19925;-78
2021/12/16 11:09:37;;;;;;;;;;;;;;;9.49;12.23;101185.09;4977660;28;19921;-77
2021/12/16 11:12:20;;;;;;;;;;;;;;;9.51;10.94;101193.69;4985449;28;20514;-77
2021/12/16 11:15:06;;;;;;;;;;;;;;;9.63;8.56;101198.94;4984071;28;19914;-78
2021/12/16 11:17:34;;;;;;;;;;;;;;;9.79;6.33;101194.75;4982831;28;19921;-78
2021/12/16 11:20:03;;;;;;;;;;;;;;;9.15;8.91;101195.97;4984033;28;20352;-78
2021/12/16 11:22:33;;;;;;;;;;;;;;;9.26;7.00;101202.91;4981500;28;19964;-78
2021/12/16 11:25:10;;;;;;;;;;;;;;;9.31;4.95;101208.97;4974387;28;19914;-78
2021/12/16 11:27:36;;;;;;;;;;;;;;;9.20;4.04;101208.88;4984396;28;19917;-78
2021/12/16 11:30:18;;;;;;;;;;;;;;;9.48;1.73;101215.09;5003735;28;19968;-78
2021/12/16 11:32:45;;;;;;;;;;;;;;;9.51;1.95;101220.28;5003035;28;19956;-78
2021/12/16 11:35:23;;;;;;;;;;;;;;;9.34;1.57;101227.00;4994374;28;20469;-77
2021/12/16 11:37:48;;;;;;;;;;;;;;;9.35;0.60;101226.13;5003445;28;19964;-78
2021/12/16 11:40:14;;;;;;;;;;;;;;;9.49;0.27;101228.81;5002959;28;19953;-78
2021/12/16 11:42:40;;;;;;;;;;;;;;;9.36;0.00;101230.44;4993448;28;20278;-78
2021/12/16 11:45:05;;;;;;;;;;;;;;;9.26;0.19;101238.91;5002235;28;20401;-78
2021/12/16 11:47:31;;;;;;;;;;;;;;;9.23;0.00;101244.03;5001822;28;19917;-78
2021/12/16 11:50:03;;;;;;;;;;;;;;;9.13;0.00;101243.94;5002408;28;19971;-77
2021/12/16 11:52:29;;;;;;;;;;;;;;;9.15;0.00;101238.81;4984346;28;19917;-78
2021/12/16 11:54:57;;;;;;;;;;;;;;;9.14;0.00;101243.09;5002394;28;19944;-77
2021/12/16 11:57:33;;;;;;;;;;;;;;;9.09;0.00;101251.59;4984711;28;19921;-78
2021/12/16 12:00:00;;;;;;;;;;;;;;;9.19;0.00;101264.59;4994610;28;19924;-78
2021/12/16 12:02:26;;;;;;;;;;;;;;;9.27;0.00;101256.06;4990907;28;20597;-78
2021/12/16 12:04:52;;;;;;;;;;;;;;;9.09;0.00;101267.03;5002627;28;19913;-78
2021/12/16 12:07:17;;;;;;;;;;;;;;;9.17;0.00;101266.28;4984641;28;20353;-78
2021/12/16 12:09:48;;;;;;;;;;;;;;;9.22;0.00;101268.88;4983646;28;19917;-78
2021/12/16 12:12:13;;;;;;;;;;;;;;;9.16;0.00;101269.66;4992832;28;20566;-78
2021/12/16 12:14:39;;;;;;;;;;;;;;;9.30;0.00;101271.53;4992491;28;19921;-78
2021/12/16 12:17:20;;;;;;;;;;;;;;;9.32;0.00;101272.41;4991726;28;20379;-78
2021/12/16 12:19:48;;;;;;;;;;;;;;;9.34;0.00;101274.13;4990911;28;19998;-77
2021/12/16 12:22:14;;;;;;;;;;;;;;;9.21;0.00;101278.31;4984483;28;19921;-78
2021/12/16 12:24:46;;;;;;;;;;;;;;;9.15;0.00;101273.09;4983339;28;19921;-78
2021/12/16 12:27:13;;;;;;;;;;;;;;;9.11;0.00;101271.34;4999047;28;19926;-78
2021/12/16 12:29:40;;;;;;;;;;;;;;;9.24;0.00;101271.44;5002562;28;20386;-78
2021/12/16 12:32:08;;;;;;;;;;;;;;;9.24;0.00;101262.06;4983562;28;19917;-78
2021/12/16 12:34:34;;;;;;;;;;;;;;;9.20;0.00;101261.16;4983985;28;19928;-77
2021/12/16 12:37:01;;;;;;;;;;;;;;;9.23;0.00;101256.88;4984378;28;19921;-78
2021/12/16 12:39:30;;;;;;;;;;;;;;;9.05;0.00;101250.69;4984222;28;19917;-77
2021/12/16 12:41:55;;;;;;;;;;;;;;;9.19;0.00;101249.16;4990714;28;20414;-78
2021/12/16 12:44:21;;;;;;;;;;;;;;;9.41;0.00;101244.19;4997968;28;19917;-78
2021/12/16 12:46:46;;;;;;;;;;;;;;;9.34;0.00;101250.13;4973761;28;20352;-77
2021/12/16 12:49:13;;;;;;;;;;;;;;;9.53;0.00;101244.28;4990503;28;19918;-77
2021/12/16 12:51:41;;;;;;;;;;;;;;;9.16;0.00;101241.41;4996021;28;19918;-77
2021/12/16 12:54:33;;;;;;;;;;;;;;;9.25;0.00;101242.34;4974462;28;19984;-77
2021/12/16 12:57:00;;;;;;;;;;;;;;;9.19;0.00;101249.16;5003682;28;19922;-77
2021/12/16 12:59:36;;;;;;;;;;;;;;;9.47;0.00;101249.41;4989864;28;19913;-78
2021/12/16 13:02:04;;;;;;;;;;;;;;;9.56;0.00;101252.06;4982600;28;19922;-77
2021/12/16 13:04:31;;;;;;;;;;;;;;;9.72;0.00;101245.31;4981828;28;20370;-78
2021/12/16 13:07:07;;;;;;;;;;;;;;;9.75;0.00;101241.91;5000607;28;20375;-77
2021/12/16 13:09:50;;;;;;;;;;;;;;;9.86;0.00;101234.28;4999659;28;19955;-77
2021/12/16 13:12:25;;;;;;;;;;;;;;;9.84;0.00;101229.09;4980508;28;20391;-78
2021/12/16 13:15:01;;;;;;;;;;;;;;;9.63;0.00;101225.53;4985572;28;19917;-78
2021/12/16 13:28:54;;;;;;;;;;;;;;;9.67;0.00;101202.38;4991517;28;19961;-74
2021/12/16 13:31:25;;;;;;;;;;;;;;;9.44;0.00;101197.91;5003527;28;20276;-75
2021/12/16 13:33:59;;;;;;;;;;;;;;;9.67;0.00;101190.41;4995884;28;19929;-74
2021/12/16 13:36:43;;;;;;;;;;;;;;;9.55;0.00;101196.28;5005008;28;20347;-74
2021/12/16 13:39:15;;;;;;;;;;;;;;;9.64;0.00;101185.22;4978624;28;19976;-74
2021/12/16 13:41:52;;;;;;;;;;;;;;;9.41;0.00;101187.63;4993373;28;19917;-74
2021/12/16 13:44:17;;;;;;;;;;;;;;;9.68;0.00;101198.97;4992203;28;19956;-74
2021/12/16 13:47:01;;;;;;;;;;;;;;;9.69;0.00;101198.09;5004186;28;19948;-74
2021/12/16 14:05:55;;;;;;;;;;;;;;;9.82;0.00;101184.47;4986613;28;19952;-74
2021/12/16 14:08:30;;;;;;;;;;;;;;;9.63;0.00;101196.38;5001843;28;19970;-74
2021/12/16 14:10:59;;;;;;;;;;;;;;;9.53;0.00;101192.84;4990875;28;19930;-74
2021/12/16 14:16:23;;;;;;;;;;;;;;;9.62;0.00;101195.53;5000069;28;20469;-74
2021/12/16 14:35:35;;;;;;;;;;;;;;;11.02;5.85;101130.81;4982059;28;20016;-74
2021/12/16 14:38:05;;;;;;;;;;;;;;;11.35;10.79;101122.19;4982006;28;20613;-75
2021/12/16 14:41:04;;;;;;;;;;;;;;;11.38;18.45;101116.16;4981827;28;19959;-75
2021/12/16 14:43:39;;;;;;;;;;;;;;;11.40;23.63;101110.16;4992265;28;20000;-75
2021/12/16 14:46:07;;;;;;;;;;;;;;;11.47;27.12;101095.50;4999841;28;20322;-75
2021/12/16 14:48:35;;;;;;;;;;;;;;;11.32;33.45;101091.25;5001675;28;21037;-75
2021/12/16 14:51:09;;;;;;;;;;;;;;;11.40;32.94;101091.22;4983313;28;19940;-76
2021/12/16 14:53:36;;;;;;;;;;;;;;;11.41;36.33;101092.97;4982842;28;19965;-76
2021/12/16 14:56:12;;;;;;;;;;;;;;;11.32;37.28;101100.72;4975653;28;19926;-75
2021/12/16 14:58:38;;;;;;;;;;;;;;;10.41;43.32;101109.25;4983693;28;19917;-75
2021/12/16 15:01:18;;;;;;;;;;;;;;;10.18;31.80;101122.03;4984439;28;20008;-75
2021/12/16 15:03:45;;;;;;;;;;;;;;;10.87;24.93;101117.03;5003957;28;19928;-75
2021/12/16 15:06:14;;;;;;;;;;;;;;;11.17;27.96;101123.06;4991347;28;19925;-75
2021/12/16 15:11:44;;;;;;;;;;;;;;;11.62;39.76;101126.47;4951600;28;19929;-73
2021/12/16 15:43:35;;;;;;;;;;;;;;;10.59;35.98;101165.13;4993747;28;19913;-75
2021/12/16 15:46:04;;;;;;;;;;;;;;;10.57;32.85;101171.97;4982962;28;20383;-75
2021/12/16 15:48:30;;;;;;;;;;;;;;;10.27;33.54;101172.69;4974689;28;19913;-75
2021/12/16 15:51:00;;;;;;;;;;;;;;;10.18;27.97;101180.38;4982935;28;20024;-75
2021/12/16 15:53:33;;;;;;;;;;;;;;;10.18;23.45;101188.13;4983613;28;19924;-75
2021/12/16 15:56:06;;;;;;;;;;;;;;;10.04;23.10;101193.19;4983429;28;19979;-75
2021/12/16 15:58:33;;;;;;;;;;;;;;;10.28;21.39;101202.75;5003240;28;19928;-75
2021/12/16 16:01:00;;;;;;;;;;;;;;;10.39;20.83;101208.84;5003009;28;19921;-76
2021/12/16 16:03:26;;;;;;;;;;;;;;;10.32;20.57;101207.09;5001852;28;19953;-75
2021/12/16 16:05:56;;;;;;;;;;;;;;;9.99;19.01;101208.63;5002062;28;19922;-75
2021/12/16 16:08:22;;;;;;;;;;;;;;;10.29;15.56;101216.53;4985439;28;19932;-75
2021/12/16 16:10:50;;;;;;;;;;;;;;;10.22;16.13;101220.75;5002525;28;19913;-75
2021/12/16 16:13:17;;;;;;;;;;;;;;;10.27;15.28;101226.78;4983816;28;20350;-75
2021/12/16 16:15:44;;;;;;;;;;;;;;;10.89;13.36;101228.75;4983006;28;19933;-75
2021/12/16 16:18:14;;;;;;;;;;;;;;;10.67;18.52;101219.25;4984169;28;20290;-75
2021/12/16 16:20:42;;;;;;;;;;;;;;;10.78;19.38;101220.13;5002405;28;20601;-75
2021/12/16 16:23:08;;;;;;;;;;;;;;;10.35;25.58;101212.25;5002653;28;20342;-75
2021/12/16 16:25:35;;;;;;;;;;;;;;;10.21;23.67;101211.28;4967929;28;20976;-75
2021/12/16 16:28:02;;;;;;;;;;;;;;;11.09;20.56;101222.78;4997180;28;20556;-75
2021/12/16 16:30:28;;;;;;;;;;;;;;;10.85;26.30;101213.28;4987422;28;19952;-76
2021/12/16 16:32:58;;;;;;;;;;;;;;;10.28;27.87;101215.63;4964946;28;19917;-75
2021/12/16 16:35:23;;;;;;;;;;;;;;;10.78;26.66;101220.13;4980561;28;19928;-75
2021/12/16 16:37:49;;;;;;;;;;;;;;;11.18;29.91;101209.91;4980600;28;19921;-75
2021/12/16 16:40:14;;;;;;;;;;;;;;;10.99;34.77;101211.63;4985264;28;19917;-75
2021/12/16 16:42:41;;;;;;;;;;;;;;;10.95;37.64;101211.56;4998438;28;19991;-75
2021/12/16 16:45:09;;;;;;;;;;;;;;;10.96;32.94;101216.75;4995058;28;19960;-75
2021/12/16 16:47:45;;;;;;;;;;;;;;;10.20;35.07;101219.88;4977442;28;20189;-75
2021/12/16 16:50:10;;;;;;;;;;;;;;;10.33;29.24;101228.53;4988341;28;20427;-75